createdAt,value
2023-02-21T00:00:13.312Z,5.50
2023-02-21T00:03:18.625Z,5.30
2023-02-21T00:06:27.414Z,5.30
2023-02-21T00:09:32.538Z,5.20
2023-02-21T00:12:37.879Z,5.20
2023-02-21T00:15:43.330Z,5.20
2023-02-21T00:18:53.256Z,5.10
2023-02-21T00:21:58.477Z,5.00
2023-02-21T00:25:03.698Z,4.90
2023-02-21T00:28:09.256Z,4.90
2023-02-21T00:31:15.126Z,4.80
2023-02-21T00:34:20.433Z,4.80
2023-02-21T00:37:26.119Z,4.80
2023-02-21T00:40:33.794Z,4.90
2023-02-21T00:43:39.253Z,4.90
2023-02-21T00:46:44.559Z,4.90
2023-02-21T00:49:49.913Z,5.10
2023-02-21T00:52:55.466Z,5.20
2023-02-21T00:56:01.818Z,5.30
2023-02-21T00:59:07.199Z,5.30
2023-02-21T01:02:12.646Z,5.20
2023-02-21T01:05:18.090Z,5.20
2023-02-21T01:08:23.656Z,5.10
2023-02-21T01:11:37.109Z,5.00
2023-02-21T01:14:42.201Z,4.90
2023-02-21T01:17:47.538Z,4.90
2023-02-21T01:20:53.075Z,5.00
2023-02-21T01:23:58.641Z,5.00
2023-02-21T01:27:04.147Z,5.20
2023-02-21T01:30:09.608Z,5.30
2023-02-21T01:33:15.142Z,5.50
2023-02-21T01:36:23.700Z,5.50
2023-02-21T01:39:30.428Z,5.50
2023-02-21T01:42:35.827Z,5.40
2023-02-21T01:45:41.078Z,5.20
2023-02-21T01:48:48.789Z,4.90
2023-02-21T01:51:58.501Z,4.70
2023-02-21T01:55:09.535Z,4.60
2023-02-21T01:58:15.966Z,4.50
2023-02-21T02:01:21.561Z,4.30
2023-02-21T02:04:26.824Z,4.30
2023-02-21T02:07:32.703Z,4.20
2023-02-21T02:10:38.333Z,4.10
2023-02-21T02:13:40.200Z,4.00
2023-02-21T02:16:39.789Z,4.00
2023-02-21T02:19:26.609Z,4.00
2023-02-21T02:22:19.389Z,4.10
2023-02-21T02:25:42.154Z,4.10
2023-02-21T02:29:05.853Z,4.10
2023-02-21T02:32:16.837Z,4.00
2023-02-21T02:35:16.258Z,3.90
2023-02-21T02:38:21.898Z,3.90
2023-02-21T02:41:33.792Z,3.90
2023-02-21T02:44:40.379Z,3.90
2023-02-21T02:47:36.104Z,4.00
2023-02-21T02:50:24.742Z,4.20
2023-02-21T02:53:11.669Z,4.30
2023-02-21T02:56:01.215Z,4.30
2023-02-21T02:58:54.194Z,4.20
2023-02-21T03:01:51.669Z,4.10
2023-02-21T03:04:53.919Z,4.10
2023-02-21T03:07:58.785Z,4.00
2023-02-21T03:11:03.541Z,3.90
2023-02-21T03:14:08.376Z,4.10
2023-02-21T03:17:01.575Z,4.20
2023-02-21T03:19:51.965Z,4.10
2023-02-21T03:22:39.971Z,4.00
2023-02-21T03:25:29.284Z,3.90
2023-02-21T03:28:16.351Z,3.80
2023-02-21T03:31:05.607Z,3.70
2023-02-21T03:33:52.492Z,3.70
2023-02-21T03:36:39.905Z,3.60
2023-02-21T03:39:26.724Z,3.60
2023-02-21T03:42:13.521Z,3.60
2023-02-21T03:45:00.371Z,3.50
2023-02-21T03:47:47.188Z,3.50
2023-02-21T03:50:34.026Z,3.50
2023-02-21T03:53:20.859Z,3.40
2023-02-21T03:56:08.279Z,3.40
2023-02-21T03:58:55.208Z,3.40
2023-02-21T04:01:42.094Z,3.40
2023-02-21T04:04:28.962Z,3.50
2023-02-21T04:07:17.832Z,3.60
2023-02-21T04:10:04.970Z,3.60
2023-02-21T04:12:52.048Z,3.60
2023-02-21T04:15:38.810Z,3.50
2023-02-21T04:18:25.823Z,3.50
2023-02-21T04:21:17.283Z,3.50
2023-02-21T04:24:04.427Z,3.50
2023-02-21T04:26:51.303Z,3.50
2023-02-21T04:29:38.223Z,3.50
2023-02-21T04:32:25.130Z,3.40
2023-02-21T04:35:12.014Z,3.40
2023-02-21T04:37:58.830Z,3.40
2023-02-21T04:40:45.669Z,3.40
2023-02-21T04:43:32.687Z,3.40
2023-02-21T04:46:19.626Z,3.40
2023-02-21T04:49:06.696Z,3.50
2023-02-21T04:51:54.368Z,3.40
2023-02-21T04:54:41.152Z,3.40
2023-02-21T04:57:28.041Z,3.40
2023-02-21T05:00:16.720Z,3.30
2023-02-21T05:03:03.595Z,3.30
2023-02-21T05:05:51.837Z,3.30
2023-02-21T05:08:38.670Z,3.30
2023-02-21T05:11:26.083Z,3.30
2023-02-21T05:14:12.966Z,3.40
2023-02-21T05:16:59.796Z,3.50
2023-02-21T05:19:47.427Z,3.60
2023-02-21T05:22:34.432Z,3.70
2023-02-21T05:25:23.285Z,3.60
2023-02-21T05:28:10.101Z,3.60
2023-02-21T05:30:59.136Z,3.70
2023-02-21T05:33:47.919Z,3.60
2023-02-21T05:36:34.758Z,3.50
2023-02-21T05:39:21.624Z,3.40
2023-02-21T05:42:08.468Z,3.40
2023-02-21T05:44:55.951Z,3.40
2023-02-21T05:47:42.952Z,3.30
2023-02-21T05:50:30.063Z,3.10
2023-02-21T05:53:17.016Z,3.10
2023-02-21T05:56:04.049Z,3.10
2023-02-21T05:58:50.960Z,3.10
2023-02-21T06:01:37.841Z,3.10
2023-02-21T06:04:25.317Z,3.20
2023-02-21T06:07:12.164Z,3.30
2023-02-21T06:09:59.008Z,3.40
2023-02-21T06:12:45.883Z,3.40
2023-02-21T06:15:32.736Z,3.30
2023-02-21T06:18:19.560Z,3.30
2023-02-21T06:21:06.520Z,3.20
2023-02-21T06:23:53.508Z,3.10
2023-02-21T06:26:42.373Z,3.10
2023-02-21T06:29:29.253Z,3.20
2023-02-21T06:32:16.162Z,3.30
2023-02-21T06:35:03.413Z,3.40
2023-02-21T06:37:50.311Z,3.50
2023-02-21T06:40:37.117Z,3.60
2023-02-21T06:43:23.976Z,3.70
2023-02-21T06:46:10.982Z,3.60
2023-02-21T06:48:58.006Z,3.80
2023-02-21T06:51:44.827Z,3.80
2023-02-21T06:54:31.717Z,3.80
2023-02-21T06:57:18.713Z,3.80
2023-02-21T07:00:06.427Z,3.90
2023-02-21T07:02:53.801Z,4.00
2023-02-21T07:05:40.640Z,4.10
2023-02-21T07:08:27.502Z,4.10
2023-02-21T07:11:15.707Z,4.00
2023-02-21T07:14:03.078Z,3.90
2023-02-21T07:16:50.915Z,3.90
2023-02-21T07:19:37.584Z,3.80
2023-02-21T07:22:26.209Z,3.70
2023-02-21T07:25:18.174Z,3.70
2023-02-21T07:28:05.305Z,4.00
2023-02-21T07:30:52.135Z,4.20
2023-02-21T07:33:39.074Z,4.40
2023-02-21T07:36:26.012Z,4.50
2023-02-21T07:39:13.001Z,4.60
2023-02-21T07:41:59.884Z,4.60
2023-02-21T07:44:47.965Z,4.70
2023-02-21T07:47:34.785Z,4.80
2023-02-21T07:50:23.745Z,4.80
2023-02-21T07:53:11.582Z,4.80
2023-02-21T07:55:58.281Z,4.90
2023-02-21T07:58:45.045Z,4.90
2023-02-21T08:01:31.910Z,4.90
2023-02-21T08:04:21.858Z,4.80
2023-02-21T08:07:09.308Z,4.80
2023-02-21T08:09:56.082Z,4.90
2023-02-21T08:12:42.921Z,5.10
2023-02-21T08:15:29.756Z,5.30
2023-02-21T08:18:20.795Z,5.40
2023-02-21T08:21:10.822Z,5.60
2023-02-21T08:23:57.725Z,5.70
2023-02-21T08:26:45.675Z,5.80
2023-02-21T08:29:32.603Z,5.80
2023-02-21T08:32:20.165Z,5.80
2023-02-21T08:35:08.639Z,5.80
2023-02-21T08:38:03.027Z,5.90
2023-02-21T08:40:51.485Z,5.90
2023-02-21T08:43:38.296Z,6.00
2023-02-21T08:46:25.188Z,6.00
2023-02-21T08:49:12.088Z,6.10
2023-02-21T08:51:58.944Z,6.10
2023-02-21T08:54:46.031Z,6.20
2023-02-21T08:57:34.725Z,6.30
2023-02-21T09:00:24.632Z,6.40
2023-02-21T09:03:11.537Z,6.50
2023-02-21T09:05:59.629Z,6.70
2023-02-21T09:08:46.467Z,6.80
2023-02-21T09:11:33.267Z,7.00
2023-02-21T09:14:20.139Z,7.20
2023-02-21T09:17:09.928Z,7.40
2023-02-21T09:19:56.761Z,7.50
2023-02-21T09:22:47.703Z,7.70
2023-02-21T09:25:34.592Z,7.90
2023-02-21T09:28:21.608Z,8.10
2023-02-21T09:31:08.564Z,8.30
2023-02-21T09:33:55.908Z,8.50
2023-02-21T09:36:43.247Z,8.60
2023-02-21T09:39:30.073Z,8.80
2023-02-21T09:42:18.644Z,8.90
2023-02-21T09:45:05.638Z,9.10
2023-02-21T09:47:56.271Z,9.20
2023-02-21T09:50:59.539Z,9.40
2023-02-21T09:53:49.620Z,9.50
2023-02-21T09:56:40.488Z,9.70
2023-02-21T09:59:27.722Z,9.90
2023-02-21T10:02:20.413Z,10.10
2023-02-21T10:05:46.391Z,10.30
2023-02-21T10:09:01.340Z,10.70
2023-02-21T10:12:09.772Z,11.10
2023-02-21T10:15:18.247Z,11.60
2023-02-21T10:18:26.240Z,12.20
2023-02-21T10:21:23.312Z,12.90
2023-02-21T10:24:17.007Z,13.60
2023-02-21T10:27:12.520Z,14.40
2023-02-21T10:30:02.430Z,15.50
2023-02-21T10:32:49.270Z,17.50
2023-02-21T10:35:37.682Z,21.50
2023-02-21T10:38:26.556Z,26.50
2023-02-21T10:41:14.126Z,31.60
2023-02-21T10:44:16.854Z,35.80
2023-02-21T10:47:25.273Z,39.10
2023-02-21T10:50:12.745Z,41.50
2023-02-21T10:52:59.694Z,42.50
2023-02-21T10:55:47.528Z,43.80
2023-02-21T10:58:36.853Z,45.40
2023-02-21T11:01:26.883Z,46.50
2023-02-21T11:04:19.881Z,47.50
2023-02-21T11:07:09.289Z,48.20
2023-02-21T11:09:56.337Z,48.90
2023-02-21T11:12:43.155Z,49.40
2023-02-21T11:15:30.140Z,49.40
2023-02-21T11:18:21.819Z,49.60
2023-02-21T11:21:16.163Z,50.20
2023-02-21T11:24:06.060Z,50.30
2023-02-21T11:26:53.888Z,50.30
2023-02-21T11:29:44.829Z,50.70
2023-02-21T11:32:45.661Z,51.40
2023-02-21T11:35:42.412Z,52.00
2023-02-21T11:38:37.740Z,52.20
2023-02-21T11:41:31.505Z,51.30
2023-02-21T11:44:41.817Z,51.50
2023-02-21T11:47:43.612Z,52.30
2023-02-21T11:50:36.404Z,51.80
2023-02-21T11:53:29.349Z,52.30
2023-02-21T11:56:40.732Z,52.20
2023-02-21T11:59:44.498Z,52.20
2023-02-21T12:03:03.400Z,51.20
2023-02-21T12:06:18.384Z,50.80
2023-02-21T12:09:18.649Z,51.30
2023-02-21T12:12:08.202Z,51.10
2023-02-21T12:15:01.172Z,51.60
2023-02-21T12:18:00.955Z,51.90
2023-02-21T12:21:16.462Z,52.10
2023-02-21T12:24:13.653Z,52.00
2023-02-21T12:27:14.853Z,51.80
2023-02-21T12:30:27.377Z,51.70
2023-02-21T12:33:35.847Z,51.10
2023-02-21T12:36:56.811Z,50.50
2023-02-21T12:39:46.702Z,50.90
2023-02-21T12:42:51.924Z,51.20
2023-02-21T12:45:57.542Z,49.50
2023-02-21T12:49:00.445Z,48.20
2023-02-21T12:52:15.422Z,49.10
2023-02-21T12:55:07.833Z,50.50
2023-02-21T12:58:04.671Z,51.50
2023-02-21T13:00:54.278Z,51.90
2023-02-21T13:03:56.822Z,52.10
2023-02-21T13:06:52.256Z,51.30
2023-02-21T13:10:05.627Z,50.40
2023-02-21T13:12:52.473Z,49.40
2023-02-21T13:15:42.647Z,48.40
2023-02-21T13:18:37.500Z,47.20
2023-02-21T13:21:33.265Z,46.20
2023-02-21T13:24:35.172Z,43.20
2023-02-21T13:27:57.942Z,41.00
2023-02-21T13:30:53.928Z,40.10
2023-02-21T13:33:46.819Z,39.40
2023-02-21T13:36:39.896Z,38.20
2023-02-21T13:39:36.722Z,35.60
2023-02-21T13:42:26.556Z,33.60
2023-02-21T13:45:20.392Z,31.80
2023-02-21T13:48:08.450Z,30.20
2023-02-21T13:51:01.034Z,29.00
2023-02-21T13:54:24.799Z,28.20
2023-02-21T13:57:33.587Z,27.50
2023-02-21T14:00:29.674Z,26.60
2023-02-21T14:03:19.626Z,25.50
2023-02-21T14:06:09.488Z,24.80
2023-02-21T14:09:02.640Z,24.00
2023-02-21T14:11:52.991Z,23.40
2023-02-21T14:14:40.614Z,23.00
2023-02-21T14:17:28.917Z,22.70
2023-02-21T14:20:21.830Z,22.40
2023-02-21T14:23:17.543Z,21.90
2023-02-21T14:26:05.348Z,21.30
2023-02-21T14:29:01.655Z,21.00
2023-02-21T14:32:04.900Z,20.70
2023-02-21T14:34:54.534Z,20.30
2023-02-21T14:37:45.329Z,20.10
2023-02-21T14:40:34.960Z,20.00
2023-02-21T14:43:45.634Z,19.80
2023-02-21T14:46:54.628Z,19.70
2023-02-21T14:49:54.102Z,19.70
2023-02-21T14:52:52.795Z,19.50
2023-02-21T14:56:17.135Z,19.40
2023-02-21T14:59:31.257Z,19.20
2023-02-21T15:03:09.222Z,19.10
2023-02-21T15:06:14.097Z,19.00
2023-02-21T15:09:12.846Z,19.00
2023-02-21T15:12:00.072Z,18.90
2023-02-21T15:14:52.050Z,18.70
2023-02-21T15:17:39.924Z,18.60
2023-02-21T15:20:26.881Z,18.50
2023-02-21T15:23:16.376Z,18.40
2023-02-21T15:26:27.465Z,18.40
2023-02-21T15:29:16.268Z,18.30
2023-02-21T15:32:04.035Z,18.20
2023-02-21T15:34:53.576Z,18.10
2023-02-21T15:37:44.084Z,18.10
2023-02-21T15:40:31.312Z,18.00
2023-02-21T15:43:40.961Z,17.90
2023-02-21T15:46:48.394Z,17.80
2023-02-21T15:49:40.452Z,17.70
2023-02-21T15:52:53.527Z,17.70
2023-02-21T15:55:41.444Z,17.60
2023-02-21T15:58:28.232Z,17.60
2023-02-21T16:01:20.618Z,17.60
2023-02-21T16:04:15.492Z,17.60
2023-02-21T16:07:02.615Z,17.60
2023-02-21T16:09:58.332Z,17.60
2023-02-21T16:12:46.721Z,17.60
2023-02-21T16:15:35.806Z,17.60
2023-02-21T16:18:22.717Z,17.30
2023-02-21T16:21:26.473Z,17.30
2023-02-21T16:24:22.428Z,17.30
2023-02-21T16:27:15.574Z,17.30
2023-02-21T16:30:04.253Z,17.30
2023-02-21T16:32:53.868Z,17.20
2023-02-21T16:35:41.148Z,17.10
2023-02-21T16:38:27.959Z,16.90
2023-02-21T16:41:16.403Z,16.80
2023-02-21T16:44:03.361Z,16.60
2023-02-21T16:46:52.190Z,16.40
2023-02-21T16:49:38.977Z,16.30
2023-02-21T16:52:28.001Z,16.10
2023-02-21T16:55:17.922Z,15.90
2023-02-21T16:58:16.630Z,15.80
2023-02-21T17:01:34.634Z,15.70
2023-02-21T17:04:24.163Z,15.50
2023-02-21T17:07:11.767Z,15.30
2023-02-21T17:09:58.695Z,15.20
2023-02-21T17:12:45.656Z,15.00
2023-02-21T17:15:32.597Z,14.80
2023-02-21T17:18:19.389Z,14.60
2023-02-21T17:21:06.281Z,14.30
2023-02-21T17:23:54.379Z,14.00
2023-02-21T17:26:41.528Z,13.70
2023-02-21T17:29:28.354Z,13.50
2023-02-21T17:32:16.474Z,13.30
2023-02-21T17:35:03.541Z,13.30
2023-02-21T17:37:51.619Z,13.30
2023-02-21T17:40:38.460Z,13.30
2023-02-21T17:43:25.394Z,13.20
2023-02-21T17:46:14.318Z,13.00
2023-02-21T17:49:01.172Z,12.90
2023-02-21T17:51:49.274Z,12.90
2023-02-21T17:54:36.108Z,12.80
2023-02-21T17:57:22.937Z,12.70
2023-02-21T18:00:16.234Z,12.50
2023-02-21T18:03:04.366Z,12.30
2023-02-21T18:05:51.952Z,12.20
2023-02-21T18:08:38.889Z,12.10
2023-02-21T18:11:26.658Z,12.00
2023-02-21T18:14:13.413Z,11.90
2023-02-21T18:17:00.274Z,11.70
2023-02-21T18:19:47.139Z,11.70
2023-02-21T18:22:35.201Z,11.60
2023-02-21T18:25:24.192Z,11.50
2023-02-21T18:28:11.020Z,11.40
2023-02-21T18:30:58.096Z,11.30
2023-02-21T18:33:45.556Z,11.20
2023-02-21T18:36:34.471Z,11.20
2023-02-21T18:39:23.942Z,11.30
2023-02-21T18:42:10.872Z,11.20
2023-02-21T18:45:00.274Z,11.10
2023-02-21T18:47:47.140Z,11.00
2023-02-21T18:50:35.469Z,10.90
2023-02-21T18:53:22.622Z,10.80
2023-02-21T18:56:11.809Z,10.70
2023-02-21T18:58:58.753Z,10.70
2023-02-21T19:01:50.632Z,10.60
2023-02-21T19:04:37.443Z,10.50
2023-02-21T19:07:24.260Z,10.40
2023-02-21T19:10:12.862Z,10.30
2023-02-21T19:13:01.939Z,10.20
2023-02-21T19:15:48.876Z,10.00
2023-02-21T19:18:37.057Z,10.00
2023-02-21T19:21:25.056Z,9.90
2023-02-21T19:24:11.926Z,9.90
2023-02-21T19:26:58.748Z,9.80
2023-02-21T19:29:45.749Z,9.60
2023-02-21T19:32:36.167Z,9.40
2023-02-21T19:35:23.094Z,9.20
2023-02-21T19:38:09.978Z,9.10
2023-02-21T19:40:56.960Z,9.10
2023-02-21T19:43:44.167Z,9.10
2023-02-21T19:46:32.384Z,9.00
2023-02-21T19:49:20.582Z,8.90
2023-02-21T19:52:07.547Z,8.80
2023-02-21T19:54:54.712Z,8.70
2023-02-21T19:57:41.577Z,8.90
2023-02-21T20:00:28.704Z,8.90
2023-02-21T20:03:15.625Z,9.00
2023-02-21T20:06:03.995Z,9.00
2023-02-21T20:08:50.911Z,9.00
2023-02-21T20:11:40.363Z,8.90
2023-02-21T20:14:27.858Z,8.80
2023-02-21T20:17:15.189Z,8.80
2023-02-21T20:20:02.145Z,8.70
2023-02-21T20:22:52.110Z,8.60
2023-02-21T20:25:38.967Z,8.40
2023-02-21T20:28:26.190Z,8.20
2023-02-21T20:31:21.462Z,8.20
2023-02-21T20:34:08.352Z,8.40
2023-02-21T20:36:55.508Z,8.30
2023-02-21T20:39:43.646Z,8.30
2023-02-21T20:42:36.175Z,8.20
2023-02-21T20:45:26.519Z,8.30
2023-02-21T20:48:13.463Z,8.30
2023-02-21T20:51:06.459Z,8.30
2023-02-21T20:53:53.703Z,8.10
2023-02-21T20:56:41.953Z,8.00
2023-02-21T20:59:31.460Z,7.80
2023-02-21T21:02:21.739Z,7.70
2023-02-21T21:05:14.032Z,7.60
2023-02-21T21:08:01.798Z,7.60
2023-02-21T21:10:48.767Z,7.60
2023-02-21T21:13:38.388Z,7.70
2023-02-21T21:16:28.445Z,7.80
2023-02-21T21:19:15.711Z,7.80
2023-02-21T21:22:12.196Z,7.70
2023-02-21T21:24:58.989Z,7.60
2023-02-21T21:27:46.691Z,7.50
2023-02-21T21:30:33.638Z,7.40
2023-02-21T21:33:22.417Z,7.30
2023-02-21T21:36:10.683Z,7.20
2023-02-21T21:38:57.741Z,7.10
2023-02-21T21:41:49.720Z,7.00
2023-02-21T21:44:44.264Z,6.90
2023-02-21T21:47:39.132Z,7.00
2023-02-21T21:50:26.522Z,7.00
2023-02-21T21:53:14.330Z,6.90
2023-02-21T21:56:09.641Z,6.80
2023-02-21T21:58:59.326Z,6.80
2023-02-21T22:01:47.707Z,6.80
2023-02-21T22:04:34.710Z,6.90
2023-02-21T22:07:23.071Z,6.90
2023-02-21T22:10:15.031Z,6.90
2023-02-21T22:13:09.691Z,6.80
2023-02-21T22:15:59.834Z,6.70
2023-02-21T22:18:46.989Z,6.60
2023-02-21T22:21:40.007Z,6.50
2023-02-21T22:24:29.525Z,6.60
2023-02-21T22:27:16.299Z,6.70
2023-02-21T22:30:04.729Z,6.80
2023-02-21T22:32:53.928Z,6.90
2023-02-21T22:35:42.651Z,7.00
2023-02-21T22:38:32.002Z,7.00
2023-02-21T22:41:36.686Z,7.10
2023-02-21T22:44:29.382Z,7.00
2023-02-21T22:47:16.267Z,6.90
2023-02-21T22:50:03.396Z,6.80
2023-02-21T22:53:09.365Z,6.70
2023-02-21T22:55:58.959Z,6.50
2023-02-21T22:58:49.178Z,6.40
2023-02-21T23:01:38.345Z,6.30
2023-02-21T23:04:26.045Z,6.30
2023-02-21T23:07:12.904Z,6.20
2023-02-21T23:09:59.830Z,6.20
2023-02-21T23:12:47.420Z,6.10
2023-02-21T23:15:35.476Z,6.10
2023-02-21T23:18:28.927Z,6.00
2023-02-21T23:21:23.127Z,6.10
2023-02-21T23:24:14.539Z,6.30
2023-02-21T23:27:08.796Z,6.40
2023-02-21T23:29:59.862Z,6.60
2023-02-21T23:32:50.592Z,6.60
2023-02-21T23:35:42.168Z,6.70
2023-02-21T23:38:29.102Z,6.70
2023-02-21T23:41:19.656Z,6.60
2023-02-21T23:44:12.457Z,6.60
2023-02-21T23:47:00.540Z,6.50
2023-02-21T23:49:49.513Z,6.50
2023-02-21T23:52:37.285Z,6.40
2023-02-21T23:55:29.911Z,6.50
2023-02-21T23:58:24.232Z,6.50
